Time;durP1;ratioP1;P1;durP2;ratioP2;P2;SDS_P1;SDS_P2;PMS_P1;PMS_P2;Temp;Humidity;BMP_temperature;BMP_pressure;BME280_temperature;BME280_humidity;BME280_pressure;Samples;Min_cycle;Max_cycle;Signal;HPM_P1;HPM_P2
2022/09/21 00:01:04;;;;;;;;;;;7.40;99.90;;;;;;5027948;28;19925;-29
2022/09/21 00:03:34;;;;;;;;;;;7.40;99.90;;;;;;5018859;28;20334;-30
2022/09/21 00:06:26;;;;;;;;;;;7.40;99.90;;;;;;5038383;28;20165;-27
2022/09/21 00:08:52;;;;;;;;;;;7.40;99.90;;;;;;5016683;28;20024;-29
2022/09/21 00:11:19;;;;;;;;;;;7.30;99.90;;;;;;5027810;28;19979;-30
2022/09/21 00:13:46;;;;;;;;;;;7.30;99.90;;;;;;4998146;28;19928;-29
2022/09/21 00:16:13;;;;;;;;;;;7.30;99.90;;;;;;5001004;28;20331;-29
2022/09/21 00:18:38;;;;;;;;;;;7.30;99.90;;;;;;5017204;28;19921;-29
2022/09/21 00:21:08;;;;;;;;;;;7.30;99.90;;;;;;5017768;28;19992;-29
2022/09/21 00:23:35;;;;;;;;;;;7.20;99.90;;;;;;5013247;28;20005;-29
2022/09/21 00:26:07;;;;;;;;;;;7.20;99.90;;;;;;5016739;28;19924;-29
2022/09/21 00:28:33;;;;;;;;;;;7.20;99.90;;;;;;5018707;28;19921;-29
2022/09/21 00:31:06;;;;;;;;;;;7.20;99.90;;;;;;5020800;28;19924;-27
2022/09/21 00:33:32;;;;;;;;;;;7.20;99.90;;;;;;4997175;28;20007;-29
2022/09/21 00:36:03;;;;;;;;;;;7.20;99.90;;;;;;5027051;28;20015;-29
2022/09/21 00:38:29;;;;;;;;;;;7.10;99.90;;;;;;5008879;28;20087;-30
2022/09/21 00:40:54;;;;;;;;;;;7.10;99.90;;;;;;5017767;28;19980;-29
2022/09/21 00:43:20;;;;;;;;;;;7.10;99.90;;;;;;5021776;28;19975;-29
2022/09/21 00:45:48;;;;;;;;;;;7.10;99.90;;;;;;5021428;28;20007;-27
2022/09/21 00:48:14;;;;;;;;;;;7.00;99.90;;;;;;5018757;28;19967;-29
2022/09/21 00:50:43;;;;;;;;;;;7.00;99.90;;;;;;5017566;28;19968;-29
2022/09/21 00:53:08;;;;;;;;;;;7.00;99.90;;;;;;5017035;28;20011;-29
2022/09/21 00:55:37;;;;;;;;;;;7.00;99.90;;;;;;5008087;28;20410;-29
2022/09/21 00:58:08;;;;;;;;;;;7.00;99.90;;;;;;5029686;28;19928;-29
2022/09/21 01:00:35;;;;;;;;;;;6.90;99.90;;;;;;5017677;28;20059;-29
2022/09/21 01:03:01;;;;;;;;;;;7.00;99.90;;;;;;5017237;28;20180;-30
2022/09/21 01:05:27;;;;;;;;;;;7.00;99.90;;;;;;5009176;28;19917;-29
2022/09/21 01:07:53;;;;;;;;;;;6.90;99.90;;;;;;5003184;28;20362;-29
2022/09/21 01:10:19;;;;;;;;;;;6.90;99.90;;;;;;5011148;28;19916;-29
2022/09/21 01:12:50;;;;;;;;;;;6.90;99.90;;;;;;5017622;28;20016;-29
2022/09/21 01:15:31;;;;;;;;;;;6.80;99.90;;;;;;5016289;28;19971;-29
2022/09/21 01:18:15;;;;;;;;;;;6.80;99.90;;;;;;5010701;28;20326;-29
2022/09/21 01:20:41;;;;;;;;;;;6.70;99.90;;;;;;5006507;28;19917;-29
2022/09/21 01:23:07;;;;;;;;;;;6.70;99.90;;;;;;5032395;28;20455;-29
2022/09/21 01:25:52;;;;;;;;;;;6.70;99.90;;;;;;5036078;28;20424;-31
2022/09/21 01:28:28;;;;;;;;;;;6.70;99.90;;;;;;5034437;28;19924;-28
2022/09/21 01:30:56;;;;;;;;;;;6.70;99.90;;;;;;5018717;28;19929;-29
2022/09/21 01:33:24;;;;;;;;;;;6.70;99.90;;;;;;5020251;28;19950;-29
2022/09/21 01:35:56;;;;;;;;;;;6.60;99.90;;;;;;5020026;28;20438;-29
2022/09/21 01:38:25;;;;;;;;;;;6.60;99.90;;;;;;5026421;28;20371;-29
2022/09/21 01:40:52;;;;;;;;;;;6.60;99.90;;;;;;5020236;28;19987;-29
2022/09/21 01:43:26;;;;;;;;;;;6.60;99.90;;;;;;5038500;28;20268;-29
2022/09/21 01:45:54;;;;;;;;;;;6.60;99.90;;;;;;5032456;28;20370;-29
2022/09/21 01:48:22;;;;;;;;;;;6.50;99.90;;;;;;5014972;28;19967;-29
2022/09/21 01:50:50;;;;;;;;;;;6.50;99.90;;;;;;5017389;28;19926;-30
2022/09/21 01:53:15;;;;;;;;;;;6.40;99.90;;;;;;5004346;28;19995;-29
2022/09/21 01:55:48;;;;;;;;;;;6.50;99.90;;;;;;5006954;28;20368;-29
2022/09/21 01:58:16;;;;;;;;;;;6.40;99.90;;;;;;5019809;28;19920;-29
2022/09/21 02:00:45;;;;;;;;;;;6.40;99.90;;;;;;5007314;28;19929;-29
2022/09/21 02:03:17;;;;;;;;;;;6.40;99.90;;;;;;5009925;28;19917;-29
2022/09/21 02:05:43;;;;;;;;;;;6.30;99.90;;;;;;5035296;28;20378;-29
2022/09/21 02:08:09;;;;;;;;;;;6.30;99.90;;;;;;5005933;28;19917;-29
2022/09/21 02:10:49;;;;;;;;;;;6.30;99.90;;;;;;4993325;28;19924;-29
2022/09/21 02:13:16;;;;;;;;;;;6.20;99.90;;;;;;5033975;28;19969;-29
2022/09/21 02:15:42;;;;;;;;;;;6.20;99.90;;;;;;5026022;28;19921;-29
2022/09/21 02:18:16;;;;;;;;;;;6.20;99.90;;;;;;5016250;28;19943;-29
2022/09/21 02:20:47;;;;;;;;;;;6.10;99.90;;;;;;5013303;28;20384;-29
2022/09/21 02:23:23;;;;;;;;;;;6.10;99.90;;;;;;5015751;28;20386;-29
2022/09/21 02:25:51;;;;;;;;;;;6.10;99.90;;;;;;5016040;28;20355;-29
2022/09/21 02:28:29;;;;;;;;;;;6.10;99.90;;;;;;5001804;28;19917;-29
2022/09/21 02:31:01;;;;;;;;;;;6.10;99.90;;;;;;5014378;28;19917;-29
2022/09/21 02:33:46;;;;;;;;;;;6.10;99.90;;;;;;5019507;28;19921;-29
2022/09/21 02:36:19;;;;;;;;;;;6.10;99.90;;;;;;5010032;28;19940;-29
2022/09/21 02:38:53;;;;;;;;;;;6.00;99.90;;;;;;5019256;28;19944;-29
2022/09/21 02:41:26;;;;;;;;;;;6.00;99.90;;;;;;5018802;28;20245;-29
2022/09/21 02:43:57;;;;;;;;;;;6.00;99.90;;;;;;5012828;28;19917;-29
2022/09/21 02:46:36;;;;;;;;;;;6.00;99.90;;;;;;5028946;28;20051;-29
2022/09/21 02:49:06;;;;;;;;;;;5.90;99.90;;;;;;5038436;28;20390;-29
2022/09/21 02:51:35;;;;;;;;;;;5.90;99.90;;;;;;5035064;28;20196;-29
2022/09/21 02:54:03;;;;;;;;;;;5.90;99.90;;;;;;5015196;28;19924;-29
2022/09/21 02:56:30;;;;;;;;;;;5.90;99.90;;;;;;5013570;28;20293;-29
2022/09/21 02:58:58;;;;;;;;;;;5.90;99.90;;;;;;5013844;28;19956;-28
2022/09/21 03:01:25;;;;;;;;;;;5.80;99.90;;;;;;5013510;28;19917;-29
2022/09/21 03:03:51;;;;;;;;;;;5.80;99.90;;;;;;5026174;28;19916;-29
2022/09/21 03:06:17;;;;;;;;;;;5.80;99.90;;;;;;5015327;28;19924;-29
2022/09/21 03:08:42;;;;;;;;;;;5.70;99.90;;;;;;5020604;28;20341;-29
2022/09/21 03:11:09;;;;;;;;;;;5.70;99.90;;;;;;5016519;28;20027;-29
2022/09/21 03:13:35;;;;;;;;;;;5.70;99.90;;;;;;5014505;28;20011;-29
2022/09/21 03:16:02;;;;;;;;;;;5.70;99.90;;;;;;5013571;28;19967;-29
2022/09/21 03:18:28;;;;;;;;;;;5.70;99.90;;;;;;5036220;28;19921;-29
2022/09/21 03:20:54;;;;;;;;;;;5.60;99.90;;;;;;5003563;28;20341;-29
2022/09/21 03:23:19;;;;;;;;;;;5.60;99.90;;;;;;5013722;28;19971;-29
2022/09/21 03:25:46;;;;;;;;;;;5.60;99.90;;;;;;5014669;28;19917;-29
2022/09/21 03:28:12;;;;;;;;;;;5.60;99.90;;;;;;5012173;28;19921;-29
2022/09/21 03:30:38;;;;;;;;;;;5.60;99.90;;;;;;5022615;28;20340;-29
2022/09/21 03:33:07;;;;;;;;;;;5.60;99.90;;;;;;5028925;28;20278;-29
2022/09/21 03:35:33;;;;;;;;;;;5.60;99.90;;;;;;5012511;28;19934;-29
2022/09/21 03:38:01;;;;;;;;;;;5.50;99.90;;;;;;5015678;28;20318;-29
2022/09/21 03:40:27;;;;;;;;;;;5.50;99.90;;;;;;5020702;28;19924;-29
2022/09/21 03:42:53;;;;;;;;;;;5.50;99.90;;;;;;5015553;28;20298;-29
2022/09/21 03:45:23;;;;;;;;;;;5.50;99.90;;;;;;5003810;28;19917;-30
2022/09/21 03:47:49;;;;;;;;;;;5.50;99.90;;;;;;5032882;28;19916;-29
2022/09/21 03:50:15;;;;;;;;;;;5.40;99.90;;;;;;5024993;28;20263;-29
2022/09/21 03:52:41;;;;;;;;;;;5.40;99.90;;;;;;5017299;28;19947;-29
2022/09/21 03:55:08;;;;;;;;;;;5.40;99.90;;;;;;5019952;28;20306;-29
2022/09/21 03:57:34;;;;;;;;;;;5.30;99.90;;;;;;5002260;28;19924;-29
2022/09/21 04:00:02;;;;;;;;;;;5.40;99.90;;;;;;5017329;28;19918;-29
2022/09/21 04:02:28;;;;;;;;;;;5.40;99.90;;;;;;5014532;28;20390;-29
2022/09/21 04:04:54;;;;;;;;;;;5.40;99.90;;;;;;5013056;28;19925;-29
2022/09/21 04:07:19;;;;;;;;;;;5.30;99.90;;;;;;5016539;28;19975;-29
2022/09/21 04:09:45;;;;;;;;;;;5.30;99.90;;;;;;5012471;28;19916;-29
2022/09/21 04:12:11;;;;;;;;;;;5.30;99.90;;;;;;5025503;28;19924;-29
2022/09/21 04:14:37;;;;;;;;;;;5.30;99.90;;;;;;5011869;28;20317;-29
2022/09/21 04:17:03;;;;;;;;;;;5.30;99.90;;;;;;5030515;28;20000;-29
2022/09/21 04:19:28;;;;;;;;;;;5.30;99.90;;;;;;5024872;28;19968;-29
2022/09/21 04:21:55;;;;;;;;;;;5.30;99.90;;;;;;5023403;28;19916;-29
2022/09/21 04:24:21;;;;;;;;;;;5.20;99.90;;;;;;5029481;28;19916;-29
2022/09/21 04:26:47;;;;;;;;;;;5.20;99.90;;;;;;5021385;28;19917;-29
2022/09/21 04:29:14;;;;;;;;;;;5.20;99.90;;;;;;5021515;28;19999;-29
2022/09/21 04:31:39;;;;;;;;;;;5.20;99.90;;;;;;5024858;28;19967;-30
2022/09/21 04:34:05;;;;;;;;;;;5.20;99.90;;;;;;5022521;28;19975;-30
2022/09/21 04:36:31;;;;;;;;;;;5.10;99.90;;;;;;5016465;28;19917;-29
2022/09/21 04:38:59;;;;;;;;;;;5.10;99.90;;;;;;5017797;28;19921;-27
2022/09/21 04:41:24;;;;;;;;;;;5.10;99.90;;;;;;5022467;28;20023;-28
2022/09/21 04:43:50;;;;;;;;;;;5.10;99.90;;;;;;5004047;28;20407;-28
2022/09/21 04:46:17;;;;;;;;;;;5.10;99.90;;;;;;5019670;28;19972;-28
2022/09/21 04:48:43;;;;;;;;;;;5.00;99.90;;;;;;5035085;28;19916;-28
2022/09/21 04:51:09;;;;;;;;;;;5.00;99.90;;;;;;5020991;28;20294;-28
2022/09/21 04:53:36;;;;;;;;;;;5.00;99.90;;;;;;5017768;28;20375;-28
2022/09/21 04:56:03;;;;;;;;;;;5.00;99.90;;;;;;5015674;28;19921;-30
2022/09/21 04:58:29;;;;;;;;;;;4.90;99.90;;;;;;5016102;28;19921;-30
2022/09/21 05:00:55;;;;;;;;;;;4.90;99.90;;;;;;5015597;28;19921;-30
2022/09/21 05:03:21;;;;;;;;;;;4.90;99.90;;;;;;5011840;28;20050;-30
2022/09/21 05:05:47;;;;;;;;;;;4.80;99.90;;;;;;5015626;28;19917;-31
2022/09/21 05:08:13;;;;;;;;;;;4.80;99.90;;;;;;5015971;28;19924;-31
2022/09/21 05:10:39;;;;;;;;;;;4.80;99.90;;;;;;5019523;28;20298;-30
2022/09/21 05:13:04;;;;;;;;;;;4.80;99.90;;;;;;5020944;28;20260;-30
2022/09/21 05:15:30;;;;;;;;;;;4.80;99.90;;;;;;5028851;28;19921;-30
2022/09/21 05:17:55;;;;;;;;;;;4.80;99.90;;;;;;5035761;28;19920;-31
2022/09/21 05:20:21;;;;;;;;;;;4.80;99.90;;;;;;5019369;28;19917;-30
2022/09/21 05:22:47;;;;;;;;;;;4.80;99.90;;;;;;5014107;28;19917;-30
2022/09/21 05:25:12;;;;;;;;;;;4.80;99.90;;;;;;5014093;28;20381;-30
2022/09/21 05:27:38;;;;;;;;;;;4.80;99.90;;;;;;5014608;28;19924;-30
2022/09/21 05:30:04;;;;;;;;;;;4.80;99.90;;;;;;5014347;28;21070;-30
2022/09/21 05:32:36;;;;;;;;;;;4.80;99.90;;;;;;5012909;28;19992;-30
2022/09/21 05:35:02;;;;;;;;;;;4.80;99.90;;;;;;5033205;28;19920;-30
2022/09/21 05:37:27;;;;;;;;;;;4.80;99.90;;;;;;5031878;28;19923;-30
2022/09/21 05:39:53;;;;;;;;;;;4.80;99.90;;;;;;5026826;28;19978;-30
2022/09/21 05:42:19;;;;;;;;;;;4.80;99.90;;;;;;5008754;28;19924;-30
2022/09/21 05:44:44;;;;;;;;;;;4.80;99.90;;;;;;5015139;28;19921;-30
2022/09/21 05:47:29;;;;;;;;;;;4.80;99.90;;;;;;5020907;28;20409;-31
2022/09/21 05:50:13;;;;;;;;;;;4.80;99.90;;;;;;5032304;28;20418;-30
2022/09/21 05:52:42;;;;;;;;;;;4.80;99.90;;;;;;5019909;28;19923;-30
2022/09/21 05:55:23;;;;;;;;;;;4.80;99.90;;;;;;5032817;28;19970;-30
2022/09/21 05:57:54;;;;;;;;;;;4.80;99.90;;;;;;5027732;28;19922;-30
2022/09/21 06:00:21;;;;;;;;;;;4.90;99.90;;;;;;5013815;28;19921;-30
2022/09/21 06:03:00;;;;;;;;;;;4.90;99.90;;;;;;5011428;28;20322;-30
2022/09/21 06:05:25;;;;;;;;;;;4.90;99.90;;;;;;5021301;28;20390;-30
2022/09/21 06:07:51;;;;;;;;;;;4.90;99.90;;;;;;5010664;28;20085;-30
2022/09/21 06:10:17;;;;;;;;;;;5.00;99.90;;;;;;5011447;28;19917;-30
2022/09/21 06:12:43;;;;;;;;;;;5.00;99.90;;;;;;5014679;28;19917;-30
2022/09/21 06:15:10;;;;;;;;;;;5.00;99.90;;;;;;5035028;28;20441;-30
2022/09/21 06:17:36;;;;;;;;;;;5.10;99.90;;;;;;5003901;28;20008;-29
2022/09/21 06:20:02;;;;;;;;;;;5.10;99.90;;;;;;5014261;28;20457;-30
2022/09/21 06:22:28;;;;;;;;;;;5.20;99.90;;;;;;5020846;28;19921;-30
2022/09/21 06:24:53;;;;;;;;;;;5.20;99.90;;;;;;5015875;28;19917;-31
2022/09/21 06:27:19;;;;;;;;;;;5.30;99.90;;;;;;5016450;28;19970;-31
2022/09/21 06:29:44;;;;;;;;;;;5.30;99.90;;;;;;5019260;28;19917;-30
2022/09/21 06:32:10;;;;;;;;;;;5.40;99.90;;;;;;5014297;28;19916;-30
2022/09/21 06:34:36;;;;;;;;;;;5.50;99.90;;;;;;5017198;28;20010;-30
2022/09/21 06:37:02;;;;;;;;;;;5.50;99.90;;;;;;5015828;28;20456;-31
2022/09/21 06:39:28;;;;;;;;;;;5.60;99.90;;;;;;5013792;28;19961;-31
2022/09/21 06:41:54;;;;;;;;;;;5.60;99.90;;;;;;5031405;28;20003;-31
2022/09/21 06:44:20;;;;;;;;;;;5.70;99.90;;;;;;5011492;28;19928;-30
2022/09/21 06:46:45;;;;;;;;;;;5.70;99.90;;;;;;5014115;28;20009;-30
2022/09/21 06:49:11;;;;;;;;;;;5.80;99.90;;;;;;5013581;28;19917;-30
2022/09/21 06:51:37;;;;;;;;;;;5.80;99.90;;;;;;5018334;28;20011;-31
2022/09/21 06:54:02;;;;;;;;;;;5.80;99.90;;;;;;5014949;28;19921;-31
2022/09/21 06:56:28;;;;;;;;;;;5.90;99.90;;;;;;5014483;28;20012;-31
2022/09/21 06:58:54;;;;;;;;;;;6.00;99.90;;;;;;5014338;28;19928;-31
2022/09/21 07:01:20;;;;;;;;;;;6.10;99.90;;;;;;5016566;28;19923;-31
2022/09/21 07:03:48;;;;;;;;;;;6.20;99.90;;;;;;5013109;28;19916;-31
2022/09/21 07:06:14;;;;;;;;;;;6.30;99.90;;;;;;5009368;28;20363;-31
2022/09/21 07:08:41;;;;;;;;;;;6.40;99.90;;;;;;5015629;28;19917;-31
2022/09/21 07:11:07;;;;;;;;;;;6.60;99.90;;;;;;5016960;28;20363;-32
2022/09/21 07:13:32;;;;;;;;;;;6.70;99.90;;;;;;4992911;28;19974;-32
2022/09/21 07:16:01;;;;;;;;;;;6.80;99.90;;;;;;5016586;28;20007;-31
2022/09/21 07:18:27;;;;;;;;;;;6.90;99.90;;;;;;5010697;28;20047;-31
2022/09/21 07:20:53;;;;;;;;;;;6.90;99.90;;;;;;5012340;28;20015;-32
2022/09/21 07:23:19;;;;;;;;;;;7.00;99.90;;;;;;5011913;28;19921;-31
2022/09/21 07:25:48;;;;;;;;;;;7.20;99.90;;;;;;5021344;28;19916;-32
2022/09/21 07:28:14;;;;;;;;;;;7.40;99.90;;;;;;5016746;28;20050;-31
2022/09/21 07:30:40;;;;;;;;;;;7.50;99.90;;;;;;5010046;28;19964;-31
2022/09/21 07:33:06;;;;;;;;;;;7.60;99.90;;;;;;5010836;28;19921;-31
2022/09/21 07:35:31;;;;;;;;;;;7.70;99.90;;;;;;5013779;28;19917;-31
2022/09/21 07:37:57;;;;;;;;;;;7.80;99.90;;;;;;5013186;28;19921;-31
2022/09/21 07:40:23;;;;;;;;;;;8.00;99.90;;;;;;5013344;28;20289;-31
2022/09/21 07:42:49;;;;;;;;;;;8.20;99.90;;;;;;5013077;28;20015;-31
2022/09/21 07:45:14;;;;;;;;;;;8.50;99.90;;;;;;5017154;28;19917;-31
2022/09/21 07:47:40;;;;;;;;;;;8.70;99.90;;;;;;5013391;28;19917;-31
2022/09/21 07:50:06;;;;;;;;;;;8.90;99.90;;;;;;5014393;28;19916;-31
2022/09/21 07:52:31;;;;;;;;;;;9.20;99.90;;;;;;5013537;28;19925;-31
2022/09/21 07:54:57;;;;;;;;;;;9.60;99.90;;;;;;5013275;28;19928;-31
2022/09/21 08:00:08;;;;;;;;;;;10.40;99.90;;;;;;5018501;28;19928;-31
2022/09/21 08:02:34;;;;;;;;;;;10.80;99.90;;;;;;5013085;28;19917;-32
2022/09/21 08:05:02;;;;;;;;;;;11.20;99.90;;;;;;5018694;28;19970;-31
2022/09/21 08:07:28;;;;;;;;;;;11.50;99.90;;;;;;5011917;28;20028;-32
2022/09/21 08:09:53;;;;;;;;;;;11.90;99.90;;;;;;5013736;28;20388;-31
2022/09/21 08:12:20;;;;;;;;;;;12.20;99.90;;;;;;5011255;28;19921;-31
2022/09/21 08:14:46;;;;;;;;;;;12.60;99.90;;;;;;5013240;28;19917;-31
2022/09/21 08:17:12;;;;;;;;;;;13.00;99.90;;;;;;5013532;28;20760;-31
2022/09/21 08:19:38;;;;;;;;;;;13.50;99.90;;;;;;5013088;28;19921;-31
2022/09/21 08:22:04;;;;;;;;;;;14.20;99.90;;;;;;5019280;28;19917;-33
2022/09/21 08:24:30;;;;;;;;;;;14.70;99.90;;;;;;5010488;28;19925;-32
2022/09/21 08:26:56;;;;;;;;;;;15.10;99.90;;;;;;5016271;28;20011;-31
2022/09/21 08:29:22;;;;;;;;;;;15.40;99.90;;;;;;5005220;28;19968;-31
2022/09/21 08:31:48;;;;;;;;;;;15.70;99.90;;;;;;5005653;28;19925;-31
2022/09/21 08:34:15;;;;;;;;;;;16.00;99.90;;;;;;5008716;28;20322;-32
2022/09/21 08:36:40;;;;;;;;;;;16.20;99.90;;;;;;5017899;28;19917;-32
2022/09/21 08:39:09;;;;;;;;;;;16.40;99.90;;;;;;5012959;28;20401;-32
2022/09/21 08:41:41;;;;;;;;;;;16.70;99.90;;;;;;5030732;28;19947;-32
2022/09/21 08:44:12;;;;;;;;;;;16.90;99.90;;;;;;5025437;28;19917;-33
2022/09/21 08:46:42;;;;;;;;;;;17.20;99.90;;;;;;5032868;28;19920;-32
2022/09/21 08:49:18;;;;;;;;;;;17.40;99.90;;;;;;5016703;28;19917;-32
2022/09/21 08:51:52;;;;;;;;;;;17.70;99.90;;;;;;5034399;28;20378;-33
2022/09/21 08:54:27;;;;;;;;;;;17.80;99.90;;;;;;5013629;28;20007;-32
2022/09/21 08:56:53;;;;;;;;;;;18.00;99.90;;;;;;5017207;28;19925;-33
2022/09/21 08:59:19;;;;;;;;;;;18.20;99.90;;;;;;5017142;28;19928;-33
2022/09/21 09:01:44;;;;;;;;;;;18.40;99.90;;;;;;5019764;28;19970;-32
2022/09/21 09:04:25;;;;;;;;;;;18.50;99.90;;;;;;5021353;28;20379;-33
2022/09/21 09:07:12;;;;;;;;;;;18.70;99.90;;;;;;5026891;28;19924;-32
2022/09/21 09:09:44;;;;;;;;;;;18.90;99.90;;;;;;5015435;28;19917;-33
2022/09/21 09:12:33;;;;;;;;;;;19.10;99.90;;;;;;5035892;28;20016;-33
2022/09/21 09:15:13;;;;;;;;;;;19.40;99.90;;;;;;5027374;28;20293;-32
2022/09/21 09:17:55;;;;;;;;;;;19.40;99.90;;;;;;5012494;28;20420;-33
2022/09/21 09:20:23;;;;;;;;;;;19.60;99.90;;;;;;5035991;28;20430;-31
2022/09/21 09:23:15;;;;;;;;;;;19.70;99.90;;;;;;5016842;28;19979;-31
2022/09/21 09:25:41;;;;;;;;;;;19.70;99.90;;;;;;5011888;28;19917;-32
2022/09/21 09:28:19;;;;;;;;;;;19.80;99.90;;;;;;5023540;28;19916;-32
2022/09/21 09:30:46;;;;;;;;;;;19.90;99.90;;;;;;5027700;28;19917;-32
2022/09/21 09:33:19;;;;;;;;;;;20.00;99.90;;;;;;5024423;28;19917;-32
2022/09/21 09:35:50;;;;;;;;;;;20.10;99.90;;;;;;5013618;28;19964;-32
2022/09/21 09:38:19;;;;;;;;;;;20.60;99.90;;;;;;5011522;28;19921;-32
2022/09/21 09:41:03;;;;;;;;;;;20.90;99.90;;;;;;5040130;28;19916;-32
2022/09/21 09:43:48;;;;;;;;;;;21.20;99.90;;;;;;5015768;28;20370;-32
2022/09/21 09:46:36;;;;;;;;;;;21.40;99.90;;;;;;5024753;28;19921;-32
2022/09/21 09:49:01;;;;;;;;;;;21.40;99.90;;;;;;5016046;28;20414;-32
2022/09/21 09:51:27;;;;;;;;;;;21.50;99.90;;;;;;5031296;28;19960;-32
2022/09/21 09:53:57;;;;;;;;;;;21.60;99.90;;;;;;5016272;28;19921;-32
2022/09/21 09:56:22;;;;;;;;;;;21.80;92.90;;;;;;5016635;28;20302;-32
2022/09/21 09:58:48;;;;;;;;;;;22.00;99.90;;;;;;5010795;28;19927;-32
2022/09/21 10:01:32;;;;;;;;;;;22.10;99.90;;;;;;5033412;28;19917;-32
2022/09/21 10:04:04;;;;;;;;;;;22.00;99.90;;;;;;5011372;28;20390;-32
2022/09/21 10:06:30;;;;;;;;;;;21.70;99.90;;;;;;5010452;28;19925;-32
2022/09/21 10:08:56;;;;;;;;;;;21.60;97.70;;;;;;5019502;28;19923;-32
2022/09/21 10:11:33;;;;;;;;;;;21.70;92.10;;;;;;5015533;28;20370;-32
2022/09/21 10:14:06;;;;;;;;;;;22.00;96.60;;;;;;5011018;28;19924;-32
2022/09/21 10:16:31;;;;;;;;;;;22.20;90.50;;;;;;5033713;28;19924;-32
2022/09/21 10:19:00;;;;;;;;;;;21.60;84.70;;;;;;5016660;28;19925;-32
2022/09/21 10:21:31;;;;;;;;;;;20.80;90.40;;;;;;5023054;28;20386;-32
2022/09/21 10:24:12;;;;;;;;;;;20.30;99.10;;;;;;5012926;28;20015;-32
2022/09/21 10:26:42;;;;;;;;;;;20.70;97.60;;;;;;5018428;28;19917;-32
2022/09/21 10:29:20;;;;;;;;;;;21.20;72.10;;;;;;5007451;28;20413;-32
2022/09/21 10:31:57;;;;;;;;;;;21.70;97.90;;;;;;5032200;28;19917;-32
2022/09/21 10:34:23;;;;;;;;;;;22.30;96.50;;;;;;5011411;28;19916;-32
2022/09/21 10:36:50;;;;;;;;;;;22.70;96.20;;;;;;5016568;28;19917;-32
2022/09/21 10:39:17;;;;;;;;;;;23.10;66.70;;;;;;5011100;28;19967;-32
2022/09/21 10:41:46;;;;;;;;;;;23.30;81.20;;;;;;5017969;28;19921;-32
2022/09/21 10:44:16;;;;;;;;;;;23.70;73.90;;;;;;5018058;28;20271;-32
2022/09/21 10:46:43;;;;;;;;;;;24.10;62.60;;;;;;5017907;28;19921;-32
2022/09/21 10:49:23;;;;;;;;;;;24.40;62.70;;;;;;5014097;28;19926;-32
2022/09/21 10:51:50;;;;;;;;;;;24.30;60.80;;;;;;5012134;28;19918;-32
2022/09/21 10:54:23;;;;;;;;;;;24.30;54.50;;;;;;5013199;28;19924;-32
2022/09/21 10:56:54;;;;;;;;;;;24.80;58.90;;;;;;5015259;28;19939;-32
2022/09/21 10:59:22;;;;;;;;;;;25.10;63.70;;;;;;5012759;28;20370;-30
2022/09/21 11:01:50;;;;;;;;;;;25.50;51.50;;;;;;5016372;28;20434;-32
2022/09/21 11:04:28;;;;;;;;;;;25.10;53.40;;;;;;5014192;28;19917;-32
2022/09/21 11:07:00;;;;;;;;;;;23.90;48.70;;;;;;5022305;28;19921;-32
2022/09/21 11:09:30;;;;;;;;;;;23.70;56.10;;;;;;5014910;28;19917;-32
2022/09/21 11:11:56;;;;;;;;;;;23.00;56.00;;;;;;5020495;28;19924;-32
2022/09/21 11:14:35;;;;;;;;;;;23.30;61.00;;;;;;5016602;28;19917;-32
2022/09/21 11:17:15;;;;;;;;;;;23.80;63.80;;;;;;5022217;28;19924;-32
2022/09/21 11:20:01;;;;;;;;;;;24.10;53.40;;;;;;5018750;28;19921;-32
2022/09/21 11:22:39;;;;;;;;;;;24.60;53.50;;;;;;5003716;28;19924;-32
2022/09/21 11:25:27;;;;;;;;;;;25.00;51.90;;;;;;5033878;28;19916;-32
2022/09/21 11:28:00;;;;;;;;;;;25.30;50.00;;;;;;5013455;28;19924;-32
2022/09/21 11:30:29;;;;;;;;;;;25.40;49.70;;;;;;5013142;28;19917;-32
2022/09/21 11:33:01;;;;;;;;;;;24.90;49.10;;;;;;5014605;28;19917;-32
2022/09/21 11:35:37;;;;;;;;;;;25.00;60.00;;;;;;5007987;28;19917;-32
2022/09/21 11:38:03;;;;;;;;;;;25.40;47.60;;;;;;5012858;28;20039;-29
2022/09/21 11:40:38;;;;;;;;;;;26.10;48.10;;;;;;5019557;28;19955;-29
2022/09/21 11:43:07;;;;;;;;;;;26.10;45.10;;;;;;5029182;28;19933;-31
2022/09/21 11:45:45;;;;;;;;;;;26.20;48.30;;;;;;5019435;28;20401;-30
2022/09/21 11:48:29;;;;;;;;;;;26.40;47.10;;;;;;5029048;28;19925;-30
2022/09/21 11:51:03;;;;;;;;;;;26.40;45.70;;;;;;5013615;28;19917;-31
2022/09/21 11:53:35;;;;;;;;;;;26.40;42.50;;;;;;5019520;28;20476;-31
2022/09/21 11:56:30;;;;;;;;;;;26.60;48.20;;;;;;5033377;28;19917;-31
2022/09/21 11:59:05;;;;;;;;;;;26.20;43.00;;;;;;4946175;28;19989;-30
2022/09/21 12:01:49;;;;;;;;;;;26.20;42.30;;;;;;5013611;28;20382;-31
2022/09/21 12:04:21;;;;;;;;;;;25.90;44.00;;;;;;5036170;28;19956;-31
2022/09/21 12:06:53;;;;;;;;;;;26.00;45.80;;;;;;5034030;28;20290;-31
2022/09/21 12:09:25;;;;;;;;;;;26.50;49.70;;;;;;5017495;28;20354;-30
2022/09/21 12:12:03;;;;;;;;;;;26.90;44.20;;;;;;5013698;28;19918;-30
2022/09/21 12:14:33;;;;;;;;;;;27.30;44.20;;;;;;5007375;28;20007;-30
2022/09/21 12:16:59;;;;;;;;;;;27.40;42.10;;;;;;5025561;28;19917;-31
2022/09/21 12:19:32;;;;;;;;;;;27.80;42.50;;;;;;5030261;28;19928;-31
2022/09/21 12:22:05;;;;;;;;;;;28.10;44.80;;;;;;5032695;28;19917;-31
2022/09/21 12:24:34;;;;;;;;;;;28.50;40.60;;;;;;5015325;28;19932;-31
2022/09/21 12:27:07;;;;;;;;;;;28.40;39.30;;;;;;5018962;28;20344;-31
2022/09/21 12:29:46;;;;;;;;;;;27.40;39.00;;;;;;5013951;28;19921;-31
2022/09/21 12:32:12;;;;;;;;;;;26.40;42.50;;;;;;5019872;28;20390;-30
2022/09/21 12:34:40;;;;;;;;;;;25.60;45.60;;;;;;5013520;28;19917;-31
2022/09/21 12:37:32;;;;;;;;;;;25.50;47.00;;;;;;5016950;28;19917;-31
2022/09/21 12:40:26;;;;;;;;;;;26.00;48.10;;;;;;5012190;28;20358;-31
2022/09/21 12:42:52;;;;;;;;;;;27.20;44.10;;;;;;4991643;28;19920;-31
2022/09/21 12:45:25;;;;;;;;;;;27.70;41.50;;;;;;5015838;28;20302;-31
2022/09/21 12:47:54;;;;;;;;;;;28.10;40.20;;;;;;5021467;28;19916;-31
2022/09/21 12:50:24;;;;;;;;;;;28.60;41.60;;;;;;5005738;28;19953;-31
2022/09/21 12:52:51;;;;;;;;;;;28.90;39.60;;;;;;5014765;28;19924;-31
2022/09/21 12:55:37;;;;;;;;;;;28.50;40.50;;;;;;5016104;28;20298;-31
2022/09/21 12:58:08;;;;;;;;;;;27.60;40.60;;;;;;5026863;28;19928;-31
2022/09/21 13:00:38;;;;;;;;;;;26.60;43.00;;;;;;5022003;28;19964;-31
2022/09/21 13:03:10;;;;;;;;;;;27.20;45.50;;;;;;5033832;28;19939;-31
2022/09/21 13:05:49;;;;;;;;;;;27.70;39.80;;;;;;5030963;28;19917;-31
2022/09/21 13:08:18;;;;;;;;;;;28.10;41.30;;;;;;5020050;28;19969;-31
2022/09/21 13:11:04;;;;;;;;;;;28.80;39.40;;;;;;5023104;28;19916;-31
2022/09/21 13:13:53;;;;;;;;;;;29.50;38.80;;;;;;5016153;28;19925;-31
2022/09/21 13:16:25;;;;;;;;;;;29.30;36.40;;;;;;5008087;28;20291;-31
2022/09/21 13:18:55;;;;;;;;;;;29.70;36.70;;;;;;5015838;28;19976;-31
2022/09/21 13:21:25;;;;;;;;;;;29.80;38.40;;;;;;5015181;28;19916;-31
2022/09/21 13:23:54;;;;;;;;;;;30.10;37.30;;;;;;5007111;28;19924;-31
2022/09/21 13:26:29;;;;;;;;;;;30.90;36.40;;;;;;5022768;28;19924;-31
2022/09/21 13:28:55;;;;;;;;;;;31.20;34.40;;;;;;5026529;28;19967;-31
2022/09/21 13:31:40;;;;;;;;;;;30.50;35.50;;;;;;5031301;28;19961;-31
2022/09/21 13:34:05;;;;;;;;;;;29.90;33.50;;;;;;5032897;28;19923;-31
2022/09/21 13:36:34;;;;;;;;;;;30.00;36.30;;;;;;5038508;28;20004;-31
2022/09/21 13:39:04;;;;;;;;;;;30.20;34.50;;;;;;5014357;28;19921;-31
2022/09/21 13:41:29;;;;;;;;;;;29.80;34.30;;;;;;5032419;28;19975;-31
2022/09/21 13:43:55;;;;;;;;;;;30.30;35.00;;;;;;5012626;28;19975;-31
2022/09/21 13:46:33;;;;;;;;;;;30.10;35.20;;;;;;5022902;28;19917;-31
2022/09/21 13:49:14;;;;;;;;;;;30.60;35.80;;;;;;5010841;28;20414;-31
2022/09/21 13:51:50;;;;;;;;;;;30.90;31.70;;;;;;5013747;28;20353;-31
2022/09/21 13:54:18;;;;;;;;;;;31.10;31.90;;;;;;5008219;28;20267;-31
2022/09/21 13:56:43;;;;;;;;;;;30.60;33.80;;;;;;5011646;28;20378;-31
2022/09/21 13:59:21;;;;;;;;;;;31.10;33.70;;;;;;5027661;28;19921;-31
2022/09/21 14:01:47;;;;;;;;;;;31.60;32.40;;;;;;5017749;28;19917;-31
2022/09/21 14:04:24;;;;;;;;;;;31.80;31.60;;;;;;5025185;28;19943;-31
2022/09/21 14:06:53;;;;;;;;;;;31.70;32.50;;;;;;5013359;28;20359;-31
2022/09/21 14:09:36;;;;;;;;;;;31.10;32.00;;;;;;5016503;28;19917;-31
2022/09/21 14:12:05;;;;;;;;;;;30.70;31.00;;;;;;5018267;28;20015;-31
2022/09/21 14:14:32;;;;;;;;;;;30.40;34.20;;;;;;5014123;28;19965;-31
2022/09/21 14:17:01;;;;;;;;;;;30.00;32.70;;;;;;5014859;28;20180;-31
2022/09/21 14:19:29;;;;;;;;;;;30.00;32.00;;;;;;5011435;28;19921;-31
2022/09/21 14:22:07;;;;;;;;;;;29.70;32.30;;;;;;5017836;28;19920;-31
2022/09/21 14:24:37;;;;;;;;;;;30.00;33.40;;;;;;5005579;28;19925;-31
2022/09/21 14:27:02;;;;;;;;;;;30.20;33.70;;;;;;5008303;28;19921;-31
2022/09/21 14:29:46;;;;;;;;;;;30.40;33.50;;;;;;5019944;28;20003;-31
2022/09/21 14:32:38;;;;;;;;;;;29.60;31.20;;;;;;5012106;28;19924;-31
2022/09/21 14:35:13;;;;;;;;;;;30.00;34.00;;;;;;5001124;28;20242;-31
2022/09/21 14:37:50;;;;;;;;;;;30.30;32.20;;;;;;5008223;28;19916;-31
2022/09/21 14:40:16;;;;;;;;;;;30.50;32.80;;;;;;5026156;28;20365;-31
2022/09/21 14:42:43;;;;;;;;;;;30.60;32.60;;;;;;5019735;28;19925;-31